KLHQ

Fairfield County Airport

Lancaster, Ohio, USA
METAR KLHQ 161221Z AUTO 32006KT 8SM OVC006 06/05 A2995 RMK AO2 T00560050
Observed Flight Rules
Dec-16 @ 12:21 UTC (23 minutes ago) Instrument Flight Rules
Wind Visibility Clouds
320° at 6 knots 8 miles
  • Overcast at 600' AGL
Temperatures Readings
Current 6°C / 43°F
Dewpoint 5°C / 41°F
Humidity 93%
Altimeter 29.95" Hg
Pressure 1014 hPa
Elevation 260
METAR KLHQ 161221Z AUTO 32006KT 8SM OVC006 06/05 A2995 RMK AO2 T00560050
Observed Flight Rules
Dec-16 @ 12:21 UTC
(23 minutes ago)
IFR
Wind Visibility
320° at 6 knots 8 miles
Clouds
  • Overcast at 600' AGL
Temperature Dewpoint
6°C / 43°F 5°C / 41°F
Humidity Altimeter Pressure
93% 29.95" Hg 1014 hPa